Decoded Metar for LFCR (RODEZ in FRANCE) (IATA:RDZ) | Meteo·Mobile Aviation Weather
aviador You're here:

LFCR Decoded Metar

RODEZ in FRANCE
Report Time2019-11-16 01:30:00
UTC Time2019-11-16 02:01:02
Flight Rules lifr LIFR
Wind230° at 08 kt
W.Decomp.*RWY 31: 1.4 kt HW 7.9 kt LCW
Visibility9000 m
Phenomena:Light Drizzle
Mist
Clouds:Overcast 003 Hf
Ceiling300 ft
Temp02°C (ISA -9)
Dew Point02°C (100% RH)
AAT-2.6°C
QNH1005 hPa
Density Alt1,165 ft
Elevation1,903 ft
Report Wrong Elevation
Raw Report
LFCR 160130Z AUTO 23008KT 9000 -DZ OVC003 02/02 Q1005 BECMG 4000
BR OVC005=

Extra information for LFCR:More info

Metar Taf Metar & Taf Last 4 Metars F.Rules Stats Wind Profile Meteogram Temp Stats Airport Information Weather charts Add Link Nearby VenuesMetar ALERT Operation Metar Decoded Social comments